Time;durP1;ratioP1;P1;durP2;ratioP2;P2;SDS_P1;SDS_P2;PMS_P1;PMS_P2;Temp;Humidity;BMP_temperature;BMP_pressure;BME280_temperature;BME280_humidity;BME280_pressure;Samples;Min_cycle;Max_cycle;Signal;HPM_P1;HPM_P2
2023/12/04 21:22:46;;;;;;;74.30;43.47;;;-1.40;1.00;;;;;;4969973;27;188791;-70
2023/12/04 21:26:09;;;;;;;73.47;35.73;;;-1.40;1.00;;;;;;5048094;27;20703;-71
2023/12/04 21:28:38;;;;;;;72.33;36.40;;;-1.50;1.00;;;;;;4986141;28;77541;-71
2023/12/04 21:31:07;;;;;;;75.87;36.43;;;-1.50;1.00;;;;;;5034434;28;20251;-71
2023/12/04 21:33:38;;;;;;;85.63;38.37;;;-1.50;1.00;;;;;;5028366;28;20224;-72
2023/12/04 21:36:08;;;;;;;76.93;38.77;;;-1.60;1.00;;;;;;5032357;28;20897;-71
2023/12/04 21:38:36;;;;;;;76.20;38.53;;;-1.60;1.00;;;;;;5038598;28;20597;-71
2023/12/04 21:41:05;;;;;;;82.03;40.00;;;-1.70;1.00;;;;;;5039560;28;20248;-73
2023/12/04 21:43:36;;;;;;;83.07;40.63;;;-1.90;1.00;;;;;;5061827;28;20316;-71
2023/12/04 21:46:05;;;;;;;87.03;40.30;;;-2.00;1.00;;;;;;5035033;28;20264;-70
2023/12/04 21:48:34;;;;;;;89.57;42.23;;;-2.00;1.00;;;;;;5038354;28;20267;-72
2023/12/04 21:51:04;;;;;;;95.30;44.00;;;-1.90;1.00;;;;;;5034064;28;20229;-72
2023/12/04 21:53:34;;;;;;;91.97;42.90;;;-1.90;1.00;;;;;;5032421;28;20242;-72
2023/12/04 21:56:03;;;;;;;95.80;44.63;;;-1.90;1.00;;;;;;5031882;28;20327;-72
2023/12/04 21:58:31;;;;;;;89.90;43.67;;;-1.90;1.00;;;;;;5035824;28;20217;-72
2023/12/04 22:01:01;;;;;;;96.93;45.33;;;-2.00;1.00;;;;;;5036131;28;20240;-73
2023/12/04 22:03:30;;;;;;;95.67;44.17;;;-2.00;1.00;;;;;;5059934;28;20345;-71
2023/12/04 22:05:59;;;;;;;99.57;46.27;;;-2.20;1.00;;;;;;5044819;28;20394;-69
2023/12/04 22:08:27;;;;;;;98.93;45.23;;;-2.30;1.00;;;;;;5031936;28;20778;-70
2023/12/04 22:10:56;;;;;;;102.40;45.83;;;-2.30;1.00;;;;;;5037675;28;20245;-72
2023/12/04 22:13:24;;;;;;;99.77;45.43;;;-2.40;1.00;;;;;;5038734;28;20700;-71
2023/12/04 22:15:53;;;;;;;96.30;45.00;;;-2.50;1.00;;;;;;5046394;28;20319;-73
2023/12/04 22:18:29;;;;;;;99.30;47.03;;;-2.40;1.00;;;;;;5039042;28;20267;-73
2023/12/04 22:20:58;;;;;;;97.83;46.80;;;-2.60;1.00;;;;;;5035261;28;20252;-72
2023/12/04 22:23:27;;;;;;;100.50;46.33;;;-2.60;1.00;;;;;;5040889;28;20271;-74
2023/12/04 22:25:56;;;;;;;99.93;44.90;;;-2.50;1.00;;;;;;5035809;28;20299;-72
2023/12/04 22:28:25;;;;;;;100.43;45.30;;;-2.70;1.00;;;;;;5040415;28;20218;-71
2023/12/04 22:30:53;;;;;;;96.07;45.43;;;-2.60;1.00;;;;;;5044203;28;20304;-71
2023/12/04 22:33:22;;;;;;;102.20;46.07;;;-2.60;1.00;;;;;;5034473;28;20306;-70
2023/12/04 22:35:52;;;;;;;100.67;45.97;;;-2.80;1.00;;;;;;5031804;28;20230;-70
2023/12/04 22:38:21;;;;;;;96.57;46.70;;;-2.70;1.00;;;;;;5018479;28;20233;-68
2023/12/04 22:40:49;;;;;;;100.53;46.00;;;-2.80;1.00;;;;;;5020041;28;20229;-70
2023/12/04 22:43:19;;;;;;;96.37;45.17;;;-2.60;1.00;;;;;;5025074;28;20229;-70
2023/12/04 22:45:48;;;;;;;100.67;46.83;;;-2.70;1.00;;;;;;5026378;28;20221;-72
2023/12/04 22:48:16;;;;;;;101.47;47.30;;;-2.90;1.00;;;;;;5052263;28;20218;-72
2023/12/04 22:50:45;;;;;;;99.33;47.23;;;-2.90;1.00;;;;;;5022851;28;20232;-71
2023/12/04 22:53:15;;;;;;;104.10;46.23;;;-2.90;1.00;;;;;;5053867;28;20248;-71
2023/12/04 22:55:43;;;;;;;100.97;47.23;;;-2.80;1.00;;;;;;5024519;28;20221;-72
2023/12/04 22:58:12;;;;;;;101.30;46.17;;;-2.80;1.00;;;;;;5025926;28;20724;-73
2023/12/04 23:00:41;;;;;;;102.53;46.53;;;-2.60;1.00;;;;;;5025553;28;20532;-73
2023/12/04 23:03:10;;;;;;;106.47;47.17;;;-2.70;1.00;;;;;;5026044;28;20226;-73
2023/12/04 23:05:39;;;;;;;106.17;48.07;;;-2.70;1.00;;;;;;5014052;28;20226;-73
2023/12/04 23:08:07;;;;;;;103.57;46.13;;;-2.80;1.00;;;;;;5039166;28;20288;-72
2023/12/04 23:10:37;;;;;;;99.90;45.63;;;-2.80;1.00;;;;;;5023680;28;20444;-72
2023/12/04 23:13:07;;;;;;;104.37;46.53;;;-2.80;1.00;;;;;;5016443;28;20571;-71
2023/12/04 23:15:36;;;;;;;106.13;45.97;;;-2.80;1.00;;;;;;5021998;28;20720;-71
2023/12/04 23:18:05;;;;;;;105.57;45.20;;;-2.80;1.00;;;;;;5029460;28;20252;-72
2023/12/04 23:20:33;;;;;;;105.27;47.40;;;-2.80;1.00;;;;;;5023390;28;20225;-70
2023/12/04 23:23:02;;;;;;;101.13;46.83;;;-2.80;1.00;;;;;;5018033;28;20230;-71
2023/12/04 23:25:31;;;;;;;100.60;44.83;;;-2.80;1.00;;;;;;5019315;28;20218;-71
2023/12/04 23:28:01;;;;;;;99.47;46.17;;;-2.80;1.00;;;;;;5023180;28;20233;-70
2023/12/04 23:30:29;;;;;;;100.80;43.60;;;-2.90;1.00;;;;;;5025864;28;20778;-71
2023/12/04 23:32:58;;;;;;;102.07;44.70;;;-2.90;1.00;;;;;;5024405;28;20226;-71
2023/12/04 23:35:27;;;;;;;104.53;46.07;;;-3.00;1.00;;;;;;5021799;28;20221;-71
2023/12/04 23:37:56;;;;;;;107.93;43.47;;;-3.00;1.00;;;;;;5022695;28;20225;-71
2023/12/04 23:40:25;;;;;;;87.37;41.63;;;-2.90;1.00;;;;;;5024861;28;20260;-73
2023/12/04 23:42:53;;;;;;;92.63;43.40;;;-3.00;1.00;;;;;;5026455;28;20213;-72
2023/12/04 23:45:23;;;;;;;91.43;42.97;;;-3.20;1.00;;;;;;5024846;28;20234;-73
2023/12/04 23:47:52;;;;;;;90.50;43.83;;;-3.40;1.00;;;;;;5027917;28;20312;-71
2023/12/04 23:50:21;;;;;;;94.63;41.33;;;-3.30;1.00;;;;;;5024694;28;20222;-71
2023/12/04 23:52:49;;;;;;;88.93;40.47;;;-3.10;1.00;;;;;;5023406;28;20751;-73
2023/12/04 23:55:17;;;;;;;98.67;41.00;;;-3.00;1.00;;;;;;5022420;28;20304;-73
2023/12/04 23:57:46;;;;;;;90.50;41.13;;;-3.10;1.00;;;;;;5052749;28;20255;-73
